createdAt,value
2018-12-30T00:00:24.088Z,4.77
2018-12-30T00:01:24.006Z,4.91
2018-12-30T00:02:23.922Z,4.77
2018-12-30T00:03:23.837Z,4.76
2018-12-30T00:04:23.752Z,4.88
2018-12-30T00:05:23.670Z,4.88
2018-12-30T00:06:23.585Z,4.79
2018-12-30T00:07:23.501Z,4.85
2018-12-30T00:08:23.418Z,4.88
2018-12-30T00:09:23.335Z,4.83
2018-12-30T00:10:23.253Z,4.88
2018-12-30T00:11:23.176Z,4.83
2018-12-30T00:12:23.083Z,4.91
2018-12-30T00:13:22.999Z,4.84
2018-12-30T00:14:22.919Z,4.87
2018-12-30T00:15:22.831Z,4.87
2018-12-30T00:16:22.748Z,4.93
2018-12-30T00:17:22.667Z,4.93
2018-12-30T00:18:22.580Z,4.87
2018-12-30T00:19:22.497Z,4.93
2018-12-30T00:20:22.412Z,4.87
2018-12-30T00:21:22.329Z,4.96
2018-12-30T00:22:22.245Z,4.98
2018-12-30T00:23:22.161Z,4.84
2018-12-30T00:24:22.078Z,4.95
2018-12-30T00:25:21.995Z,4.96
2018-12-30T00:26:21.909Z,4.95
2018-12-30T00:27:21.827Z,4.91
2018-12-30T00:28:21.742Z,4.87
2018-12-30T00:29:21.659Z,4.92
2018-12-30T00:30:21.574Z,4.92
2018-12-30T00:31:21.490Z,5.02
2018-12-30T00:32:21.408Z,5.02
2018-12-30T00:33:21.325Z,4.93
2018-12-30T00:34:21.240Z,5.21
2018-12-30T00:35:21.155Z,5.17
2018-12-30T00:36:21.072Z,5.17
2018-12-30T00:37:20.990Z,5.14
2018-12-30T00:38:20.905Z,5.17
2018-12-30T00:39:20.822Z,5.17
2018-12-30T00:40:20.739Z,5.17
2018-12-30T00:41:20.659Z,5.17
2018-12-30T00:42:20.571Z,5.10
2018-12-30T00:43:20.488Z,5.16
2018-12-30T00:44:20.404Z,5.21
2018-12-30T00:45:20.323Z,5.20
2018-12-30T00:46:20.236Z,5.08
2018-12-30T00:47:20.152Z,5.17
2018-12-30T00:48:20.218Z,5.11
2018-12-30T00:49:19.986Z,5.13
2018-12-30T00:50:19.901Z,5.14
2018-12-30T00:51:19.819Z,5.11
2018-12-30T00:52:19.735Z,5.08
2018-12-30T00:53:19.901Z,5.00
2018-12-30T00:54:19.567Z,5.05
2018-12-30T00:55:19.483Z,5.14
2018-12-30T00:56:19.401Z,5.14
2018-12-30T00:57:19.316Z,5.24
2018-12-30T00:58:19.233Z,5.26
2018-12-30T00:59:19.149Z,5.21
2018-12-30T01:00:19.067Z,5.28
2018-12-30T01:01:18.984Z,5.24
2018-12-30T01:02:18.899Z,5.24
2018-12-30T01:03:18.814Z,5.24
2018-12-30T01:04:18.731Z,5.35
2018-12-30T01:05:18.649Z,5.28
2018-12-30T01:06:18.565Z,5.36
2018-12-30T01:07:18.481Z,5.35
2018-12-30T01:08:18.448Z,5.38
2018-12-30T01:09:18.317Z,5.36
2018-12-30T01:10:18.231Z,5.52
2018-12-30T01:11:18.149Z,5.52
2018-12-30T01:12:18.065Z,5.41
2018-12-30T01:13:17.981Z,5.45
2018-12-30T01:14:17.897Z,5.49
2018-12-30T01:15:17.814Z,5.56
2018-12-30T01:16:17.734Z,5.54
2018-12-30T01:17:17.648Z,5.56
2018-12-30T01:18:17.564Z,5.53
2018-12-30T01:19:17.482Z,5.49
2018-12-30T01:20:17.398Z,5.41
2018-12-30T01:21:24.817Z,5.49
2018-12-30T01:22:17.230Z,5.39
2018-12-30T01:23:17.147Z,5.49
2018-12-30T01:24:17.067Z,5.47
2018-12-30T01:25:16.982Z,5.45
2018-12-30T01:26:16.902Z,5.49
2018-12-30T01:27:16.815Z,5.52
2018-12-30T01:28:16.733Z,5.39
2018-12-30T01:29:16.649Z,5.52
2018-12-30T01:30:16.566Z,5.42
2018-12-30T01:31:16.482Z,5.44
2018-12-30T01:32:16.399Z,5.49
2018-12-30T01:33:16.317Z,5.50
2018-12-30T01:34:16.235Z,5.39
2018-12-30T01:35:16.149Z,5.36
2018-12-30T01:36:16.066Z,5.36
2018-12-30T01:37:15.984Z,5.39
2018-12-30T01:38:15.901Z,5.32
2018-12-30T01:39:15.817Z,5.36
2018-12-30T01:40:15.786Z,5.44
2018-12-30T01:41:15.652Z,5.39
2018-12-30T01:42:15.568Z,5.42
2018-12-30T01:43:15.557Z,5.32
2018-12-30T01:44:15.403Z,5.35
2018-12-30T01:45:15.319Z,5.39
2018-12-30T01:46:15.285Z,5.41
2018-12-30T01:47:15.154Z,5.35
2018-12-30T01:48:15.070Z,5.44
2018-12-30T01:49:14.987Z,5.32
2018-12-30T01:50:14.905Z,5.41
2018-12-30T01:51:14.821Z,5.53
2018-12-30T01:52:14.737Z,5.65
2018-12-30T01:53:14.654Z,5.67
2018-12-30T01:54:14.571Z,5.71
2018-12-30T01:55:14.488Z,5.68
2018-12-30T01:56:14.406Z,5.67
2018-12-30T01:57:14.323Z,5.80
2018-12-30T01:58:14.242Z,5.89
2018-12-30T01:59:14.157Z,5.93
2018-12-30T02:00:14.074Z,6.08
2018-12-30T02:01:13.993Z,6.10
2018-12-30T02:02:13.907Z,6.04
2018-12-30T02:03:13.824Z,6.11
2018-12-30T02:04:13.742Z,6.18
2018-12-30T02:05:13.662Z,6.33
2018-12-30T02:06:13.575Z,6.29
2018-12-30T02:07:13.492Z,6.39
2018-12-30T02:08:13.460Z,6.48
2018-12-30T02:09:13.333Z,6.54
2018-12-30T02:10:13.245Z,6.66
2018-12-30T02:11:13.163Z,6.63
2018-12-30T02:12:13.079Z,6.63
2018-12-30T02:13:12.997Z,6.65
2018-12-30T02:14:12.912Z,6.66
2018-12-30T02:15:12.829Z,6.57
2018-12-30T02:16:12.748Z,6.70
2018-12-30T02:17:12.665Z,6.66
2018-12-30T02:18:12.584Z,6.70
2018-12-30T02:19:12.500Z,6.73
2018-12-30T02:20:12.417Z,6.73
2018-12-30T02:21:12.333Z,6.80
2018-12-30T02:22:12.252Z,6.83
2018-12-30T02:23:12.168Z,6.78
2018-12-30T02:24:12.087Z,6.78
2018-12-30T02:25:12.005Z,6.80
2018-12-30T02:26:11.923Z,6.88
2018-12-30T02:27:11.839Z,6.75
2018-12-30T02:28:11.757Z,6.76
2018-12-30T02:29:11.675Z,6.83
2018-12-30T02:30:11.591Z,6.94
2018-12-30T02:31:11.510Z,6.80
2018-12-30T02:32:11.426Z,6.78
2018-12-30T02:33:11.346Z,6.83
2018-12-30T02:34:11.264Z,6.87
2018-12-30T02:35:11.180Z,6.84
2018-12-30T02:36:11.099Z,6.86
2018-12-30T02:37:11.016Z,6.78
2018-12-30T02:38:10.933Z,6.76
2018-12-30T02:39:10.852Z,6.83
2018-12-30T02:40:10.769Z,6.86
2018-12-30T02:41:10.687Z,6.88
2018-12-30T02:42:10.606Z,6.80
2018-12-30T02:43:10.531Z,6.88
2018-12-30T02:44:10.440Z,6.80
2018-12-30T02:45:10.358Z,6.91
2018-12-30T02:46:10.278Z,6.84
2018-12-30T02:47:10.242Z,6.87
2018-12-30T02:48:10.113Z,6.90
2018-12-30T02:49:10.035Z,6.80
2018-12-30T02:50:09.950Z,6.76
2018-12-30T02:51:09.865Z,6.75
2018-12-30T02:52:09.784Z,6.73
2018-12-30T02:53:09.700Z,6.76
2018-12-30T02:54:09.620Z,6.78
2018-12-30T02:55:09.538Z,6.84
2018-12-30T02:56:09.454Z,6.90
2018-12-30T02:57:09.372Z,6.91
2018-12-30T02:58:09.340Z,6.88
2018-12-30T02:59:09.207Z,6.88
2018-12-30T03:00:09.125Z,6.93
2018-12-30T03:01:09.044Z,6.75
2018-12-30T03:02:08.961Z,6.72
2018-12-30T03:03:09.132Z,6.87
2018-12-30T03:04:08.797Z,6.93
2018-12-30T03:05:08.714Z,6.87
2018-12-30T03:06:08.634Z,6.83
2018-12-30T03:07:08.550Z,6.75
2018-12-30T03:08:08.469Z,6.73
2018-12-30T03:09:08.636Z,6.75
2018-12-30T03:10:08.304Z,6.72
2018-12-30T03:11:08.222Z,6.68
2018-12-30T03:12:08.139Z,6.54
2018-12-30T03:13:08.057Z,6.59
2018-12-30T03:14:07.977Z,6.57
2018-12-30T03:15:07.893Z,6.45
2018-12-30T03:16:07.811Z,6.45
2018-12-30T03:17:07.729Z,6.45
2018-12-30T03:18:07.655Z,6.41
2018-12-30T03:19:07.565Z,6.30
2018-12-30T03:20:07.633Z,6.33
2018-12-30T03:21:07.402Z,6.32
2018-12-30T03:22:07.317Z,6.18
2018-12-30T03:23:07.236Z,6.36
2018-12-30T03:24:07.154Z,6.17
2018-12-30T03:25:07.076Z,6.14
2018-12-30T03:26:06.989Z,6.15
2018-12-30T03:27:06.908Z,6.24
2018-12-30T03:28:07.218Z,6.15
2018-12-30T03:29:06.745Z,6.17
2018-12-30T03:30:06.663Z,6.14
2018-12-30T03:31:06.581Z,6.14
2018-12-30T03:32:06.499Z,6.08
2018-12-30T03:33:06.417Z,6.07
2018-12-30T03:34:06.334Z,6.13
2018-12-30T03:35:06.252Z,6.08
2018-12-30T03:36:06.170Z,6.11
2018-12-30T03:37:06.338Z,6.08
2018-12-30T03:38:06.006Z,6.07
2018-12-30T03:39:05.923Z,6.07
2018-12-30T03:40:05.841Z,6.06
2018-12-30T03:41:05.762Z,6.04
2018-12-30T03:42:05.678Z,6.07
2018-12-30T03:43:05.596Z,6.08
2018-12-30T03:44:05.515Z,6.10
2018-12-30T03:45:05.433Z,6.11
2018-12-30T03:46:05.351Z,6.07
2018-12-30T03:47:05.268Z,6.10
2018-12-30T03:48:05.234Z,6.08
2018-12-30T03:49:05.104Z,6.15
2018-12-30T03:50:05.022Z,6.27
2018-12-30T03:51:04.939Z,6.30
2018-12-30T03:52:08.563Z,6.26
2018-12-30T03:53:04.777Z,6.33
2018-12-30T03:54:04.692Z,6.29
2018-12-30T03:55:04.614Z,6.22
2018-12-30T03:56:04.529Z,6.11
2018-12-30T03:57:04.447Z,6.18
2018-12-30T03:58:04.363Z,6.27
2018-12-30T03:59:04.280Z,6.22
2018-12-30T04:00:04.200Z,6.27
2018-12-30T04:01:04.163Z,6.29
2018-12-30T04:02:04.035Z,6.41
2018-12-30T04:03:03.957Z,6.50
2018-12-30T04:04:03.870Z,6.66
2018-12-30T04:05:03.788Z,6.72
2018-12-30T04:06:03.706Z,6.75
2018-12-30T04:07:03.624Z,6.83
2018-12-30T04:08:03.539Z,6.86
2018-12-30T04:09:03.558Z,6.87
2018-12-30T04:10:03.377Z,6.80
2018-12-30T04:11:03.293Z,6.86
2018-12-30T04:12:03.279Z,6.93
2018-12-30T04:13:03.132Z,6.84
2018-12-30T04:14:03.046Z,6.88
2018-12-30T04:15:02.965Z,6.94
2018-12-30T04:16:02.884Z,6.98
2018-12-30T04:17:02.803Z,6.99
2018-12-30T04:18:02.721Z,6.99
2018-12-30T04:19:02.635Z,7.02
2018-12-30T04:20:02.554Z,7.01
2018-12-30T04:21:02.572Z,6.98
2018-12-30T04:22:02.390Z,7.12
2018-12-30T04:23:02.308Z,7.05
2018-12-30T04:24:02.226Z,7.01
2018-12-30T04:25:02.144Z,7.05
2018-12-30T04:26:02.162Z,7.09
2018-12-30T04:27:01.983Z,7.09
2018-12-30T04:28:01.897Z,7.11
2018-12-30T04:29:01.819Z,7.05
2018-12-30T04:30:01.735Z,7.03
2018-12-30T04:31:01.653Z,7.08
2018-12-30T04:32:01.572Z,7.06
2018-12-30T04:33:01.490Z,7.09
2018-12-30T04:34:01.412Z,7.05
2018-12-30T04:35:01.325Z,7.02
2018-12-30T04:36:01.499Z,7.01
2018-12-30T04:37:01.161Z,7.08
2018-12-30T04:38:01.079Z,7.06
2018-12-30T04:39:00.996Z,7.06
2018-12-30T04:40:00.916Z,7.11
2018-12-30T04:41:00.833Z,7.08
2018-12-30T04:42:00.753Z,7.06
2018-12-30T04:43:00.671Z,7.12
2018-12-30T04:44:00.593Z,7.12
2018-12-30T04:45:00.506Z,7.06
2018-12-30T04:46:00.425Z,7.11
2018-12-30T04:47:00.593Z,7.19
2018-12-30T04:48:00.283Z,7.12
2018-12-30T04:49:00.180Z,7.16
2018-12-30T04:50:00.178Z,7.17
2018-12-30T04:51:00.017Z,7.17
2018-12-30T04:51:59.939Z,7.23
2018-12-30T04:52:59.858Z,7.20
2018-12-30T04:53:59.771Z,7.19
2018-12-30T04:54:59.688Z,7.12
2018-12-30T04:55:59.610Z,7.16
2018-12-30T04:56:59.525Z,7.06
2018-12-30T04:57:59.606Z,7.03
2018-12-30T04:58:59.365Z,6.98
2018-12-30T04:59:59.280Z,7.01
2018-12-30T05:00:59.200Z,6.91
2018-12-30T05:01:59.116Z,6.87
2018-12-30T05:02:59.037Z,6.93
2018-12-30T05:03:58.953Z,6.94
2018-12-30T05:04:58.872Z,6.91
2018-12-30T05:05:58.790Z,6.94
2018-12-30T05:06:58.709Z,6.94
2018-12-30T05:07:58.726Z,6.87
2018-12-30T05:08:58.545Z,6.99
2018-12-30T05:09:58.462Z,7.01
2018-12-30T05:10:58.382Z,7.01
2018-12-30T05:11:58.302Z,6.99
2018-12-30T05:12:58.218Z,7.05
2018-12-30T05:13:58.135Z,7.16
2018-12-30T05:14:58.054Z,7.08
2018-12-30T05:15:57.976Z,7.09
2018-12-30T05:16:57.891Z,7.12
2018-12-30T05:17:57.808Z,7.11
2018-12-30T05:18:57.726Z,7.02
2018-12-30T05:19:57.648Z,7.13
2018-12-30T05:20:57.563Z,7.17
2018-12-30T05:21:57.481Z,7.20
2018-12-30T05:22:57.398Z,7.16
2018-12-30T05:23:57.318Z,7.27
2018-12-30T05:24:57.237Z,7.16
2018-12-30T05:25:57.154Z,7.23
2018-12-30T05:26:57.071Z,7.13
2018-12-30T05:27:56.992Z,7.20
2018-12-30T05:28:56.909Z,7.12
2018-12-30T05:29:56.827Z,7.12
2018-12-30T05:30:56.747Z,7.13
2018-12-30T05:31:56.667Z,7.16
2018-12-30T05:32:56.584Z,7.17
2018-12-30T05:33:56.502Z,7.16
2018-12-30T05:34:56.421Z,7.13
2018-12-30T05:35:56.341Z,7.26
2018-12-30T05:36:56.260Z,7.26
2018-12-30T05:37:56.179Z,7.11
2018-12-30T05:38:56.194Z,7.21
2018-12-30T05:39:56.012Z,7.20
2018-12-30T05:40:55.933Z,7.16
2018-12-30T05:41:55.850Z,7.11
2018-12-30T05:42:55.769Z,7.16
2018-12-30T05:43:55.936Z,7.17
2018-12-30T05:44:55.607Z,7.19
2018-12-30T05:45:55.524Z,7.19
2018-12-30T05:46:55.441Z,7.24
2018-12-30T05:47:55.361Z,7.26
2018-12-30T05:48:55.281Z,7.19
2018-12-30T05:49:55.197Z,7.17
2018-12-30T05:50:55.114Z,7.20
2018-12-30T05:51:55.035Z,7.27
2018-12-30T05:52:54.953Z,7.21
2018-12-30T05:53:54.870Z,7.29
2018-12-30T05:54:54.789Z,7.30
2018-12-30T05:55:54.709Z,7.30
2018-12-30T05:56:54.626Z,7.35
2018-12-30T05:57:54.544Z,7.37
2018-12-30T05:58:54.462Z,7.41
2018-12-30T05:59:54.381Z,7.37
2018-12-30T06:00:54.301Z,7.39
2018-12-30T06:01:54.217Z,7.35
2018-12-30T06:02:54.137Z,7.41
2018-12-30T06:03:54.055Z,7.42
2018-12-30T06:04:53.974Z,7.41
2018-12-30T06:05:53.892Z,7.44
2018-12-30T06:06:53.810Z,7.44
2018-12-30T06:07:53.727Z,7.41
2018-12-30T06:08:53.647Z,7.41
2018-12-30T06:09:53.565Z,7.38
2018-12-30T06:10:53.565Z,7.35
2018-12-30T06:11:53.401Z,7.42
2018-12-30T06:12:53.322Z,7.37
2018-12-30T06:13:53.238Z,7.48
2018-12-30T06:14:53.163Z,7.38
2018-12-30T06:15:53.076Z,7.39
2018-12-30T06:16:52.994Z,7.48
2018-12-30T06:17:52.911Z,7.45
2018-12-30T06:18:52.830Z,7.52
2018-12-30T06:19:52.749Z,7.53
2018-12-30T06:20:52.666Z,7.56
2018-12-30T06:21:52.585Z,7.52
2018-12-30T06:22:52.503Z,7.47
2018-12-30T06:23:52.423Z,7.45
2018-12-30T06:24:52.341Z,7.39
2018-12-30T06:25:52.259Z,7.38
2018-12-30T06:26:52.177Z,7.45
2018-12-30T06:27:52.095Z,7.44
2018-12-30T06:28:52.015Z,7.45
2018-12-30T06:29:51.932Z,7.55
2018-12-30T06:30:51.851Z,7.52
2018-12-30T06:31:51.769Z,7.55
2018-12-30T06:32:51.691Z,7.53
2018-12-30T06:33:51.608Z,7.60
2018-12-30T06:34:51.532Z,7.49
2018-12-30T06:35:51.445Z,7.59
2018-12-30T06:36:51.365Z,7.56
2018-12-30T06:37:51.281Z,7.57
2018-12-30T06:38:51.200Z,7.57
2018-12-30T06:39:51.119Z,7.57
2018-12-30T06:40:51.038Z,7.56
2018-12-30T06:41:50.956Z,7.62
2018-12-30T06:42:50.873Z,7.53
2018-12-30T06:43:50.792Z,7.57
2018-12-30T06:44:50.714Z,7.55
2018-12-30T06:45:50.680Z,7.56
2018-12-30T06:46:50.548Z,7.60
2018-12-30T06:47:50.467Z,7.56
2018-12-30T06:48:50.386Z,7.52
2018-12-30T06:49:50.304Z,7.52
2018-12-30T06:50:50.223Z,7.56
2018-12-30T06:51:50.141Z,7.56
2018-12-30T06:52:57.365Z,7.59
2018-12-30T06:53:49.980Z,7.59
2018-12-30T06:54:49.901Z,7.55
2018-12-30T06:55:49.817Z,7.56
2018-12-30T06:56:49.735Z,7.48
2018-12-30T06:57:49.654Z,7.44
2018-12-30T06:58:49.573Z,7.39
2018-12-30T06:59:49.491Z,7.35
2018-12-30T07:00:49.411Z,7.38
2018-12-30T07:01:49.331Z,7.35
2018-12-30T07:02:49.247Z,7.26
2018-12-30T07:03:49.170Z,7.30
2018-12-30T07:04:49.086Z,7.24
2018-12-30T07:05:49.004Z,7.24
2018-12-30T07:06:48.924Z,7.17
2018-12-30T07:07:48.843Z,7.30
2018-12-30T07:08:48.762Z,7.13
2018-12-30T07:09:48.679Z,7.13
2018-12-30T07:10:48.599Z,7.13
2018-12-30T07:11:48.519Z,7.19
2018-12-30T07:12:48.437Z,7.11
2018-12-30T07:13:48.356Z,7.03
2018-12-30T07:14:48.276Z,7.06
2018-12-30T07:15:48.198Z,7.03
2018-12-30T07:16:48.112Z,7.02
2018-12-30T07:17:48.032Z,7.06
2018-12-30T07:18:47.951Z,7.11
2018-12-30T07:19:47.870Z,7.03
2018-12-30T07:20:47.791Z,7.01
2018-12-30T07:21:47.708Z,7.09
2018-12-30T07:22:47.628Z,6.96
2018-12-30T07:23:47.546Z,7.02
2018-12-30T07:24:47.466Z,7.02
2018-12-30T07:25:47.383Z,6.94
2018-12-30T07:26:47.304Z,6.96
2018-12-30T07:27:47.224Z,6.96
2018-12-30T07:28:47.193Z,6.90
2018-12-30T07:29:47.060Z,6.94
2018-12-30T07:30:46.980Z,6.94
2018-12-30T07:31:46.898Z,6.91
2018-12-30T07:32:46.818Z,6.98
2018-12-30T07:33:46.740Z,6.88
2018-12-30T07:34:46.655Z,6.88
2018-12-30T07:35:46.580Z,6.91
2018-12-30T07:36:46.496Z,6.87
2018-12-30T07:37:46.413Z,6.91
2018-12-30T07:38:46.383Z,6.91
2018-12-30T07:39:46.253Z,6.98
2018-12-30T07:40:46.173Z,6.93
2018-12-30T07:41:46.091Z,6.91
2018-12-30T07:42:46.011Z,6.91
2018-12-30T07:43:45.930Z,6.98
2018-12-30T07:44:45.849Z,6.90
2018-12-30T07:45:45.771Z,6.83
2018-12-30T07:46:45.688Z,6.98
2018-12-30T07:47:45.607Z,7.01
2018-12-30T07:48:45.527Z,7.02
2018-12-30T07:49:45.446Z,6.93
2018-12-30T07:50:45.365Z,6.91
2018-12-30T07:51:45.284Z,6.91
2018-12-30T07:52:45.204Z,6.91
2018-12-30T07:53:45.121Z,6.90
2018-12-30T07:54:45.041Z,6.96
2018-12-30T07:55:44.963Z,6.94
2018-12-30T07:56:44.880Z,6.96
2018-12-30T07:57:44.799Z,6.98
2018-12-30T07:58:44.720Z,6.94
2018-12-30T07:59:44.639Z,6.99
2018-12-30T08:00:44.558Z,6.94
2018-12-30T08:01:44.480Z,6.90
2018-12-30T08:02:44.397Z,6.94
2018-12-30T08:03:44.316Z,6.99
2018-12-30T08:04:44.235Z,6.87
2018-12-30T08:05:44.156Z,6.94
2018-12-30T08:06:44.074Z,6.86
2018-12-30T08:07:43.994Z,6.87
2018-12-30T08:08:43.916Z,6.87
2018-12-30T08:09:43.833Z,6.86
2018-12-30T08:10:43.758Z,6.94
2018-12-30T08:11:43.672Z,6.87
2018-12-30T08:12:43.592Z,6.87
2018-12-30T08:13:43.510Z,6.78
2018-12-30T08:14:43.429Z,6.94
2018-12-30T08:15:43.350Z,6.84
2018-12-30T08:16:43.270Z,6.84
2018-12-30T08:17:43.190Z,6.84
2018-12-30T08:18:43.107Z,6.94
2018-12-30T08:19:43.127Z,6.90
2018-12-30T08:20:42.945Z,6.80
2018-12-30T08:21:42.864Z,6.84
2018-12-30T08:22:42.785Z,6.75
2018-12-30T08:23:42.704Z,6.75
2018-12-30T08:24:42.624Z,6.69
2018-12-30T08:25:42.543Z,6.75
2018-12-30T08:26:42.462Z,6.73
2018-12-30T08:27:42.381Z,6.72
2018-12-30T08:28:42.607Z,6.75
2018-12-30T08:29:42.219Z,6.83
2018-12-30T08:30:42.139Z,6.76
2018-12-30T08:31:42.061Z,6.73
2018-12-30T08:32:41.977Z,6.75
2018-12-30T08:33:41.896Z,6.81
2018-12-30T08:34:41.866Z,6.93
2018-12-30T08:35:41.733Z,6.78
2018-12-30T08:36:41.654Z,6.83
2018-12-30T08:37:41.573Z,6.87
2018-12-30T08:38:41.495Z,6.87
2018-12-30T08:39:41.412Z,6.83
2018-12-30T08:40:41.330Z,6.83
2018-12-30T08:41:41.249Z,6.91
2018-12-30T08:42:41.169Z,6.91
2018-12-30T08:43:41.087Z,6.91
2018-12-30T08:44:41.010Z,6.96
2018-12-30T08:45:40.928Z,6.99
2018-12-30T08:46:40.844Z,7.03
2018-12-30T08:47:40.764Z,7.16
2018-12-30T08:48:40.683Z,7.03
2018-12-30T08:49:40.601Z,7.08
2018-12-30T08:50:40.521Z,7.06
2018-12-30T08:51:40.440Z,7.13
2018-12-30T08:52:40.359Z,7.16
2018-12-30T08:53:40.292Z,7.11
2018-12-30T08:54:40.198Z,7.06
2018-12-30T08:55:40.118Z,7.06
2018-12-30T08:56:40.037Z,7.05
2018-12-30T08:57:39.955Z,7.05
2018-12-30T08:58:39.875Z,7.16
2018-12-30T08:59:39.795Z,7.19
2018-12-30T09:00:39.713Z,7.19
2018-12-30T09:01:39.632Z,7.12
2018-12-30T09:02:39.551Z,7.16
2018-12-30T09:03:39.473Z,7.12
2018-12-30T09:04:39.393Z,7.13
2018-12-30T09:05:39.311Z,7.17
2018-12-30T09:06:39.231Z,7.08
2018-12-30T09:07:39.150Z,7.19
2018-12-30T09:08:39.069Z,7.13
2018-12-30T09:09:38.988Z,7.13
2018-12-30T09:10:38.907Z,7.03
2018-12-30T09:11:38.827Z,7.09
2018-12-30T09:12:38.749Z,7.09
2018-12-30T09:13:38.666Z,7.13
2018-12-30T09:14:38.586Z,7.11
2018-12-30T09:15:38.505Z,7.17
2018-12-30T09:16:38.426Z,7.09
2018-12-30T09:17:38.343Z,7.06
2018-12-30T09:18:38.264Z,6.93
2018-12-30T09:19:38.185Z,7.02
2018-12-30T09:20:38.103Z,6.99
2018-12-30T09:21:38.023Z,7.02
2018-12-30T09:22:37.947Z,7.03
2018-12-30T09:23:37.881Z,6.87
2018-12-30T09:24:37.783Z,6.90
2018-12-30T09:25:37.700Z,6.86
2018-12-30T09:26:37.619Z,6.91
2018-12-30T09:27:37.540Z,6.87
2018-12-30T09:28:37.458Z,6.91
2018-12-30T09:29:37.377Z,6.91
2018-12-30T09:30:37.300Z,6.90
2018-12-30T09:31:37.217Z,6.87
2018-12-30T09:32:37.139Z,6.83
2018-12-30T09:33:37.053Z,6.90
2018-12-30T09:34:36.974Z,6.90
2018-12-30T09:35:36.892Z,6.86
2018-12-30T09:36:36.813Z,6.99
2018-12-30T09:37:36.731Z,6.99
2018-12-30T09:38:36.649Z,7.01
2018-12-30T09:39:36.575Z,6.90
2018-12-30T09:40:36.488Z,6.93
2018-12-30T09:41:36.408Z,6.99
2018-12-30T09:42:36.332Z,6.96
2018-12-30T09:43:36.250Z,7.05
2018-12-30T09:44:36.167Z,7.03
2018-12-30T09:45:36.085Z,7.08
2018-12-30T09:46:36.004Z,7.16
2018-12-30T09:47:35.924Z,7.12
2018-12-30T09:48:35.844Z,7.11
2018-12-30T09:49:35.761Z,7.16
2018-12-30T09:50:35.683Z,7.09
2018-12-30T09:51:35.601Z,7.06
2018-12-30T09:52:35.521Z,7.16
2018-12-30T09:53:35.439Z,7.11
2018-12-30T09:54:35.359Z,7.13
2018-12-30T09:55:35.278Z,7.21
2018-12-30T09:56:35.197Z,7.17
2018-12-30T09:57:35.115Z,7.26
2018-12-30T09:58:35.036Z,7.39
2018-12-30T09:59:34.955Z,7.37
2018-12-30T10:00:34.874Z,7.38
2018-12-30T10:01:34.793Z,7.52
2018-12-30T10:02:34.713Z,7.49
2018-12-30T10:03:34.633Z,7.47
2018-12-30T10:04:34.557Z,7.53
2018-12-30T10:05:34.472Z,7.47
2018-12-30T10:06:34.392Z,7.56
2018-12-30T10:07:34.312Z,7.35
2018-12-30T10:08:34.231Z,7.47
2018-12-30T10:09:34.150Z,7.44
2018-12-30T10:10:34.074Z,7.48
2018-12-30T10:11:33.990Z,7.56
2018-12-30T10:12:33.916Z,7.53
2018-12-30T10:13:33.831Z,7.63
2018-12-30T10:14:33.750Z,7.56
2018-12-30T10:15:33.669Z,7.60
2018-12-30T10:16:33.592Z,7.60
2018-12-30T10:17:33.508Z,7.68
2018-12-30T10:18:33.428Z,7.75
2018-12-30T10:19:33.451Z,7.68
2018-12-30T10:20:33.270Z,7.73
2018-12-30T10:21:33.189Z,7.78
2018-12-30T10:22:33.109Z,7.81
2018-12-30T10:23:33.028Z,7.53
2018-12-30T10:24:32.950Z,7.59
2018-12-30T10:25:32.869Z,7.62
2018-12-30T10:26:32.789Z,7.67
2018-12-30T10:27:32.709Z,7.49
2018-12-30T10:28:32.630Z,7.55
2018-12-30T10:29:32.549Z,7.49
2018-12-30T10:30:32.549Z,7.60
2018-12-30T10:31:32.390Z,7.59
2018-12-30T10:32:32.310Z,7.72
2018-12-30T10:33:32.230Z,7.63
2018-12-30T10:34:32.149Z,7.78
2018-12-30T10:35:32.796Z,7.72
2018-12-30T10:36:31.989Z,7.73
2018-12-30T10:37:31.910Z,7.90
2018-12-30T10:38:31.828Z,7.70
2018-12-30T10:39:31.750Z,7.79
2018-12-30T10:40:31.670Z,7.82
2018-12-30T10:41:31.589Z,7.78
2018-12-30T10:42:31.510Z,7.72
2018-12-30T10:43:31.430Z,7.70
2018-12-30T10:44:31.351Z,7.75
2018-12-30T10:45:31.271Z,7.72
2018-12-30T10:46:31.190Z,7.68
2018-12-30T10:47:31.111Z,7.64
2018-12-30T10:48:31.031Z,7.64
2018-12-30T10:49:30.949Z,7.59
2018-12-30T10:50:31.019Z,7.70
2018-12-30T10:51:30.790Z,7.73
2018-12-30T10:52:30.713Z,7.73
2018-12-30T10:53:30.632Z,7.68
2018-12-30T10:54:30.550Z,7.59
2018-12-30T10:55:30.469Z,7.56
2018-12-30T10:56:30.390Z,7.62
2018-12-30T10:57:30.309Z,7.60
2018-12-30T10:58:30.229Z,7.68
2018-12-30T10:59:30.150Z,7.62
2018-12-30T11:00:30.069Z,7.62
2018-12-30T11:01:29.988Z,7.63
2018-12-30T11:02:29.907Z,7.57
2018-12-30T11:03:29.832Z,7.57
2018-12-30T11:04:29.747Z,7.68
2018-12-30T11:05:29.667Z,7.75
2018-12-30T11:06:29.587Z,7.72
2018-12-30T11:07:29.507Z,7.70
2018-12-30T11:08:29.427Z,7.67
2018-12-30T11:09:29.346Z,7.64
2018-12-30T11:10:29.267Z,7.72
2018-12-30T11:11:29.187Z,7.70
2018-12-30T11:12:29.107Z,7.76
2018-12-30T11:13:29.026Z,7.70
2018-12-30T11:14:28.947Z,7.75
2018-12-30T11:15:28.866Z,7.70
2018-12-30T11:16:28.786Z,7.85
2018-12-30T11:17:28.705Z,7.91
2018-12-30T11:18:28.625Z,7.90
2018-12-30T11:19:28.545Z,7.76
2018-12-30T11:20:28.465Z,7.73
2018-12-30T11:21:28.385Z,7.73
2018-12-30T11:22:28.305Z,7.78
2018-12-30T11:23:28.226Z,7.73
2018-12-30T11:24:28.145Z,7.76
2018-12-30T11:25:28.064Z,7.78
2018-12-30T11:26:27.985Z,7.76
2018-12-30T11:27:27.905Z,7.78
2018-12-30T11:28:27.826Z,7.72
2018-12-30T11:29:27.744Z,7.76
2018-12-30T11:30:27.663Z,7.67
2018-12-30T11:31:27.585Z,7.75
2018-12-30T11:32:27.503Z,7.68
2018-12-30T11:33:27.423Z,7.68
2018-12-30T11:34:27.345Z,7.64
2018-12-30T11:35:27.264Z,7.67
2018-12-30T11:36:27.185Z,7.57
2018-12-30T11:37:27.104Z,7.68
2018-12-30T11:38:27.026Z,7.63
2018-12-30T11:39:26.942Z,7.57
2018-12-30T11:40:26.865Z,7.72
2018-12-30T11:41:26.782Z,7.72
2018-12-30T11:42:26.702Z,7.67
2018-12-30T11:43:26.621Z,7.73
2018-12-30T11:44:26.543Z,7.70
2018-12-30T11:45:26.461Z,7.85
2018-12-30T11:46:26.382Z,7.90
2018-12-30T11:47:26.302Z,7.88
2018-12-30T11:48:26.271Z,7.90
2018-12-30T11:49:26.141Z,7.78
2018-12-30T11:50:26.061Z,7.73
2018-12-30T11:51:25.982Z,7.76
2018-12-30T11:52:25.901Z,7.90
2018-12-30T11:53:26.843Z,7.73
2018-12-30T11:54:25.741Z,7.78
2018-12-30T11:55:25.662Z,7.78
2018-12-30T11:56:25.582Z,7.68
2018-12-30T11:57:25.502Z,7.79
2018-12-30T11:58:25.673Z,7.70
2018-12-30T11:59:25.357Z,7.70
2018-12-30T12:00:25.263Z,7.73
2018-12-30T12:01:25.182Z,7.79
2018-12-30T12:02:25.103Z,7.73
2018-12-30T12:03:25.023Z,7.81
2018-12-30T12:04:24.946Z,7.70
2018-12-30T12:05:24.863Z,7.76
2018-12-30T12:06:24.784Z,7.76
2018-12-30T12:07:24.706Z,7.68
2018-12-30T12:08:24.625Z,7.81
2018-12-30T12:09:24.547Z,7.73
2018-12-30T12:10:24.464Z,7.78
2018-12-30T12:11:24.386Z,7.75
2018-12-30T12:12:24.305Z,7.75
2018-12-30T12:13:24.224Z,7.68
2018-12-30T12:14:24.146Z,7.70
2018-12-30T12:15:24.063Z,7.75
2018-12-30T12:16:23.986Z,7.73
2018-12-30T12:17:23.905Z,7.76
2018-12-30T12:18:23.823Z,7.64
2018-12-30T12:19:23.745Z,7.72
2018-12-30T12:20:23.666Z,7.81
2018-12-30T12:21:23.583Z,7.88
2018-12-30T12:22:23.504Z,7.75
2018-12-30T12:23:23.424Z,7.78
2018-12-30T12:24:24.419Z,7.67
2018-12-30T12:25:23.265Z,7.73
2018-12-30T12:26:23.184Z,7.75
2018-12-30T12:27:23.105Z,7.76
2018-12-30T12:28:23.026Z,7.75
2018-12-30T12:29:22.944Z,7.78
2018-12-30T12:30:22.865Z,7.86
2018-12-30T12:31:22.784Z,7.76
2018-12-30T12:32:22.707Z,7.63
2018-12-30T12:33:22.623Z,7.72
2018-12-30T12:34:22.544Z,7.82
2018-12-30T12:35:22.465Z,7.73
2018-12-30T12:36:22.384Z,7.76
2018-12-30T12:37:22.302Z,7.79
2018-12-30T12:38:22.222Z,7.76
2018-12-30T12:39:22.143Z,7.73
2018-12-30T12:40:22.063Z,7.76
2018-12-30T12:41:21.983Z,7.78
2018-12-30T12:42:21.902Z,7.76
2018-12-30T12:43:21.825Z,7.73
2018-12-30T12:44:21.743Z,7.73
2018-12-30T12:45:21.663Z,7.73
2018-12-30T12:46:21.583Z,7.76
2018-12-30T12:47:21.502Z,7.70
2018-12-30T12:48:21.423Z,7.68
2018-12-30T12:49:21.342Z,7.67
2018-12-30T12:50:21.262Z,7.79
2018-12-30T12:51:21.332Z,7.81
2018-12-30T12:52:21.104Z,7.91
2018-12-30T12:53:21.021Z,7.86
2018-12-30T12:54:20.941Z,7.68
2018-12-30T12:55:20.865Z,7.70
2018-12-30T12:56:20.815Z,7.88
2018-12-30T12:57:20.701Z,7.73
2018-12-30T12:58:20.621Z,7.83
2018-12-30T12:59:20.541Z,7.96
2018-12-30T13:00:20.461Z,7.97
2018-12-30T13:01:20.380Z,7.86
2018-12-30T13:02:20.300Z,7.86
2018-12-30T13:03:20.222Z,7.86
2018-12-30T13:04:20.140Z,7.90
2018-12-30T13:05:20.058Z,7.86
2018-12-30T13:06:19.981Z,7.85
2018-12-30T13:07:19.900Z,7.94
2018-12-30T13:08:19.820Z,7.97
2018-12-30T13:09:19.739Z,7.86
2018-12-30T13:10:19.659Z,7.86
2018-12-30T13:11:19.579Z,7.97
2018-12-30T13:12:19.499Z,7.96
2018-12-30T13:13:19.421Z,7.88
2018-12-30T13:14:19.338Z,7.81
2018-12-30T13:15:19.259Z,7.82
2018-12-30T13:16:19.180Z,7.86
2018-12-30T13:17:19.105Z,7.88